createdAt,value
2022-08-19T00:01:28.587Z,73.01
2022-08-19T00:06:34.316Z,72.61
2022-08-19T00:11:44.751Z,73.36
2022-08-19T00:16:55.688Z,73.33
2022-08-19T00:22:08.098Z,73.25
2022-08-19T00:27:26.348Z,73.21
2022-08-19T00:32:51.867Z,73.40
2022-08-19T00:38:17.957Z,73.03
2022-08-19T00:43:44.018Z,73.21
2022-08-19T00:49:20.635Z,73.18
2022-08-19T00:54:47.820Z,73.32
2022-08-19T01:00:30.556Z,73.37
2022-08-19T01:05:47.611Z,73.20
2022-08-19T01:11:02.067Z,73.36
2022-08-19T01:16:17.104Z,73.52
2022-08-19T01:22:14.079Z,73.61
2022-08-19T01:28:09.878Z,73.69
2022-08-19T01:33:21.219Z,73.83
2022-08-19T01:38:44.280Z,74.08
2022-08-19T01:44:09.926Z,74.06
2022-08-19T01:49:32.298Z,74.61
2022-08-19T01:54:43.158Z,74.38
2022-08-19T01:59:51.376Z,74.24
2022-08-19T02:04:59.394Z,74.40
2022-08-19T02:10:19.953Z,74.46
2022-08-19T02:15:33.466Z,74.52
2022-08-19T02:21:02.742Z,74.89
2022-08-19T02:26:37.630Z,74.84
2022-08-19T02:31:49.100Z,74.90
2022-08-19T02:37:11.141Z,74.75
2022-08-19T02:42:24.030Z,74.94
2022-08-19T02:47:58.490Z,75.04
2022-08-19T02:53:16.493Z,75.34
2022-08-19T02:58:23.964Z,75.49
2022-08-19T03:03:43.543Z,75.54
2022-08-19T03:09:00.146Z,75.71
2022-08-19T03:14:13.845Z,75.89
2022-08-19T03:19:20.351Z,76.30
2022-08-19T03:24:34.348Z,76.36
2022-08-19T03:29:51.574Z,76.74
2022-08-19T03:35:23.997Z,76.78
2022-08-19T03:40:43.019Z,76.74
2022-08-19T03:46:16.465Z,76.75
2022-08-19T03:51:38.485Z,76.64
2022-08-19T03:56:49.273Z,76.69
2022-08-19T04:02:20.196Z,76.52
2022-08-19T04:07:26.342Z,76.24
2022-08-19T04:12:34.285Z,76.07
2022-08-19T04:17:37.643Z,75.82
2022-08-19T04:22:43.814Z,75.52
2022-08-19T04:27:52.303Z,75.18
2022-08-19T04:32:55.425Z,74.22
2022-08-19T04:37:58.652Z,73.18
2022-08-19T04:43:05.065Z,72.33
2022-08-19T04:48:26.584Z,70.46
2022-08-19T04:53:38.236Z,69.54
2022-08-19T04:58:49.450Z,68.86
2022-08-19T05:03:53.815Z,68.10
2022-08-19T05:08:59.665Z,66.94
2022-08-19T05:14:06.202Z,66.44
2022-08-19T05:19:33.616Z,66.18
2022-08-19T05:24:51.256Z,64.83
2022-08-19T05:30:01.411Z,65.04
2022-08-19T05:35:09.084Z,65.12
2022-08-19T05:40:12.559Z,64.54
2022-08-19T05:45:17.969Z,63.78
2022-08-19T05:50:23.534Z,63.36
2022-08-19T05:55:26.800Z,62.70
2022-08-19T06:00:32.341Z,61.58
2022-08-19T06:05:39.182Z,60.01
2022-08-19T06:10:52.538Z,60.85
2022-08-19T06:15:58.258Z,60.76
2022-08-19T06:21:04.665Z,60.60
2022-08-19T06:26:12.800Z,59.97
2022-08-19T06:31:27.234Z,58.47
2022-08-19T06:36:42.980Z,57.73
2022-08-19T06:41:56.815Z,57.44
2022-08-19T06:47:09.444Z,55.65
2022-08-19T06:52:15.532Z,54.72
2022-08-19T06:57:21.334Z,54.26
2022-08-19T07:02:27.507Z,53.54
2022-08-19T07:07:32.623Z,52.88
2022-08-19T07:12:38.339Z,52.76
2022-08-19T07:17:42.409Z,52.02
2022-08-19T07:22:48.979Z,51.30
2022-08-19T07:27:54.471Z,51.21
2022-08-19T07:32:58.317Z,50.85
2022-08-19T07:38:04.194Z,50.90
2022-08-19T07:43:14.056Z,50.69
2022-08-19T07:48:27.097Z,50.63
2022-08-19T07:53:36.704Z,50.21
2022-08-19T07:58:46.965Z,49.22
2022-08-19T08:04:11.289Z,49.01
2022-08-19T08:09:26.925Z,48.18
2022-08-19T08:14:52.410Z,47.53
2022-08-19T08:19:59.728Z,47.72
2022-08-19T08:25:20.650Z,47.23
2022-08-19T08:30:27.184Z,46.71
2022-08-19T08:35:35.987Z,46.19
2022-08-19T08:40:52.500Z,46.06
2022-08-19T08:46:31.276Z,46.08
2022-08-19T08:51:48.754Z,45.22
2022-08-19T08:57:12.178Z,44.51
2022-08-19T09:02:15.213Z,43.60
2022-08-19T09:07:47.517Z,43.22
2022-08-19T09:13:24.606Z,43.68
2022-08-19T09:18:43.167Z,44.10
2022-08-19T09:23:46.292Z,43.83
2022-08-19T09:28:55.778Z,43.43
2022-08-19T09:34:01.777Z,43.43
2022-08-19T09:39:14.796Z,42.76
2022-08-19T09:44:21.917Z,42.86
2022-08-19T09:49:25.409Z,42.17
2022-08-19T09:54:28.932Z,41.01
2022-08-19T09:59:33.380Z,39.31
2022-08-19T10:04:56.605Z,39.44
2022-08-19T10:09:59.703Z,39.67
2022-08-19T10:15:03.423Z,39.13
2022-08-19T10:20:07.659Z,38.83
2022-08-19T10:25:11.554Z,38.08
2022-08-19T10:30:14.771Z,37.58
2022-08-19T10:35:21.864Z,37.46
2022-08-19T10:40:26.626Z,36.80
2022-08-19T10:45:29.935Z,36.96
2022-08-19T10:50:51.874Z,36.67
2022-08-19T10:56:13.489Z,37.35
2022-08-19T11:01:19.415Z,37.81
2022-08-19T11:06:22.537Z,37.99
2022-08-19T11:11:25.900Z,38.33
2022-08-19T11:16:31.145Z,38.28
2022-08-19T11:21:40.378Z,38.35
2022-08-19T11:26:50.393Z,37.21
2022-08-19T11:31:54.596Z,36.94
2022-08-19T11:36:59.771Z,36.53
2022-08-19T11:42:23.957Z,36.28
2022-08-19T11:47:27.364Z,35.90
2022-08-19T11:52:30.676Z,34.32
2022-08-19T11:57:34.001Z,33.92
2022-08-19T12:02:37.166Z,34.51
2022-08-19T12:07:41.945Z,34.64
2022-08-19T12:12:47.453Z,35.17
2022-08-19T12:18:02.216Z,35.35
2022-08-19T12:23:11.072Z,35.29
2022-08-19T12:28:14.539Z,35.31
2022-08-19T12:33:18.404Z,35.33
2022-08-19T12:38:25.374Z,35.53
2022-08-19T12:43:28.879Z,35.81
2022-08-19T12:48:35.107Z,36.01
2022-08-19T12:53:39.283Z,35.37
2022-08-19T12:58:50.224Z,35.42
2022-08-19T13:03:56.038Z,35.11
2022-08-19T13:08:59.857Z,34.93
2022-08-19T13:14:04.953Z,34.35
2022-08-19T13:19:08.558Z,34.00
2022-08-19T13:24:11.617Z,34.34
2022-08-19T13:29:33.451Z,34.51
2022-08-19T13:34:38.063Z,34.80
2022-08-19T13:39:41.550Z,35.13
2022-08-19T13:44:47.344Z,34.46
2022-08-19T13:49:51.148Z,34.23
2022-08-19T13:54:54.972Z,34.03
2022-08-19T13:59:59.651Z,33.98
2022-08-19T14:05:02.860Z,33.97
2022-08-19T14:10:09.547Z,33.83
2022-08-19T14:15:14.482Z,33.48
2022-08-19T14:20:18.989Z,33.69
2022-08-19T14:25:27.437Z,33.75
2022-08-19T14:30:36.592Z,33.33
2022-08-19T14:35:50.365Z,33.10
2022-08-19T14:40:53.846Z,33.35
2022-08-19T14:46:00.928Z,33.68
2022-08-19T14:51:07.905Z,33.71
2022-08-19T14:56:19.022Z,33.82
2022-08-19T15:01:26.543Z,33.78
2022-08-19T15:06:32.988Z,33.62
2022-08-19T15:11:39.646Z,32.90
2022-08-19T15:16:42.931Z,32.67
2022-08-19T15:21:46.174Z,32.60
2022-08-19T15:26:49.557Z,33.13
2022-08-19T15:31:58.827Z,33.00
2022-08-19T15:37:04.669Z,33.01
2022-08-19T15:42:08.719Z,33.28
2022-08-19T15:47:15.259Z,33.38
2022-08-19T15:52:21.744Z,34.00
2022-08-19T15:57:27.509Z,34.72
2022-08-19T16:02:49.485Z,35.07
2022-08-19T16:07:57.247Z,35.56
2022-08-19T16:13:00.742Z,35.87
2022-08-19T16:18:04.370Z,36.29
2022-08-19T16:23:07.495Z,36.47
2022-08-19T16:28:13.600Z,36.74
2022-08-19T16:33:22.782Z,37.11
2022-08-19T16:38:27.879Z,37.47
2022-08-19T16:43:32.468Z,37.72
2022-08-19T16:48:43.293Z,38.06
2022-08-19T16:53:46.439Z,38.49
2022-08-19T16:58:50.655Z,38.88
2022-08-19T17:03:55.699Z,39.43
2022-08-19T17:09:02.382Z,39.90
2022-08-19T17:14:08.528Z,40.35
2022-08-19T17:19:11.744Z,40.69
2022-08-19T17:24:17.031Z,41.19
2022-08-19T17:29:20.109Z,41.63
2022-08-19T17:34:23.220Z,41.97
2022-08-19T17:39:26.462Z,42.74
2022-08-19T17:44:29.556Z,43.09
2022-08-19T17:49:35.228Z,43.55
2022-08-19T17:54:39.045Z,44.01
2022-08-19T17:59:42.143Z,44.51
2022-08-19T18:04:48.659Z,44.99
2022-08-19T18:09:54.088Z,45.24
2022-08-19T18:14:58.572Z,45.81
2022-08-19T18:20:02.580Z,46.38
2022-08-19T18:25:24.263Z,46.38
2022-08-19T18:30:34.281Z,46.88
2022-08-19T18:35:39.399Z,47.33
2022-08-19T18:41:00.923Z,47.80
2022-08-19T18:46:22.542Z,48.12
2022-08-19T18:51:30.178Z,48.19
2022-08-19T18:56:55.759Z,48.36
2022-08-19T19:02:00.517Z,48.54
2022-08-19T19:07:05.975Z,48.65
2022-08-19T19:12:11.506Z,48.87
2022-08-19T19:17:16.593Z,49.28
2022-08-19T19:22:23.073Z,49.52
2022-08-19T19:27:26.511Z,49.55
2022-08-19T19:32:39.434Z,49.63
2022-08-19T19:37:44.017Z,49.91
2022-08-19T19:42:48.199Z,49.94
2022-08-19T19:47:51.492Z,49.96
2022-08-19T19:52:55.355Z,49.99
2022-08-19T19:57:58.497Z,49.93
2022-08-19T20:03:02.474Z,49.97
2022-08-19T20:08:24.113Z,50.00
2022-08-19T20:13:27.231Z,50.22
2022-08-19T20:18:31.291Z,50.24
2022-08-19T20:23:35.312Z,50.22
2022-08-19T20:28:38.318Z,50.01
2022-08-19T20:33:47.583Z,49.81
2022-08-19T20:38:51.406Z,49.67
2022-08-19T20:43:54.512Z,49.60
2022-08-19T20:48:59.140Z,49.44
2022-08-19T20:54:02.657Z,49.40
2022-08-19T20:59:10.658Z,49.40
2022-08-19T21:04:13.828Z,49.43
2022-08-19T21:09:16.787Z,49.44
2022-08-19T21:14:20.560Z,49.43
2022-08-19T21:19:24.225Z,49.38
2022-08-19T21:24:31.707Z,49.38
2022-08-19T21:29:37.565Z,49.40
2022-08-19T21:34:41.507Z,49.46
2022-08-19T21:39:47.004Z,49.53
2022-08-19T21:44:52.722Z,49.56
2022-08-19T21:49:55.705Z,49.59
2022-08-19T21:54:58.787Z,49.69
2022-08-19T22:00:02.605Z,49.81
2022-08-19T22:05:06.605Z,49.94
2022-08-19T22:10:11.323Z,50.07
2022-08-19T22:15:15.543Z,50.18
2022-08-19T22:20:27.077Z,50.37
2022-08-19T22:25:35.648Z,50.43
2022-08-19T22:30:42.410Z,50.58
2022-08-19T22:35:47.513Z,50.69
2022-08-19T22:40:53.465Z,51.19
2022-08-19T22:45:58.805Z,51.78
2022-08-19T22:51:20.301Z,52.37
2022-08-19T22:56:23.746Z,52.63
2022-08-19T23:01:30.444Z,52.69
2022-08-19T23:06:36.346Z,52.57
2022-08-19T23:11:41.970Z,52.86
2022-08-19T23:16:51.098Z,53.96
2022-08-19T23:21:54.495Z,56.06
2022-08-19T23:27:16.266Z,56.58
2022-08-19T23:32:21.658Z,56.75
2022-08-19T23:37:25.639Z,58.06
2022-08-19T23:42:29.052Z,59.36
2022-08-19T23:47:32.007Z,61.48
2022-08-19T23:52:47.513Z,63.15
2022-08-19T23:57:50.946Z,64.05
